sensor_id;sensor_type;location;lat;lon;timestamp;temperature;humidity
47600;DHT22;33323;52.124;6.018;2022-07-29T00:00:14;16.70;92.20
47600;DHT22;33323;52.124;6.018;2022-07-29T00:02:41;16.70;92.20
47600;DHT22;33323;52.124;6.018;2022-07-29T00:05:08;16.60;92.20
47600;DHT22;33323;52.124;6.018;2022-07-29T00:07:36;16.60;92.30
47600;DHT22;33323;52.124;6.018;2022-07-29T00:10:04;16.60;92.40
47600;DHT22;33323;52.124;6.018;2022-07-29T00:12:31;16.60;92.70
47600;DHT22;33323;52.124;6.018;2022-07-29T00:14:58;16.50;92.60
47600;DHT22;33323;52.124;6.018;2022-07-29T00:17:25;16.50;92.60
47600;DHT22;33323;52.124;6.018;2022-07-29T00:19:52;16.50;92.80
47600;DHT22;33323;52.124;6.018;2022-07-29T00:22:20;16.40;93.00
47600;DHT22;33323;52.124;6.018;2022-07-29T00:24:48;16.40;92.90
47600;DHT22;33323;52.124;6.018;2022-07-29T00:27:16;16.40;92.90
47600;DHT22;33323;52.124;6.018;2022-07-29T00:29:43;16.40;93.50
47600;DHT22;33323;52.124;6.018;2022-07-29T00:32:10;16.30;93.20
47600;DHT22;33323;52.124;6.018;2022-07-29T00:34:37;16.30;93.20
47600;DHT22;33323;52.124;6.018;2022-07-29T00:37:24;16.30;93.40
47600;DHT22;33323;52.124;6.018;2022-07-29T00:39:51;16.30;93.40
47600;DHT22;33323;52.124;6.018;2022-07-29T00:42:18;16.20;93.70
47600;DHT22;33323;52.124;6.018;2022-07-29T00:44:45;16.20;93.70
47600;DHT22;33323;52.124;6.018;2022-07-29T00:47:12;16.20;93.80
47600;DHT22;33323;52.124;6.018;2022-07-29T00:49:41;16.20;93.80
47600;DHT22;33323;52.124;6.018;2022-07-29T00:52:09;16.10;93.80
47600;DHT22;33323;52.124;6.018;2022-07-29T00:54:39;16.10;94.00
47600;DHT22;33323;52.124;6.018;2022-07-29T00:57:11;16.00;94.00
47600;DHT22;33323;52.124;6.018;2022-07-29T00:59:39;16.00;94.30
47600;DHT22;33323;52.124;6.018;2022-07-29T01:02:06;16.00;94.50
47600;DHT22;33323;52.124;6.018;2022-07-29T01:04:33;16.00;94.40
47600;DHT22;33323;52.124;6.018;2022-07-29T01:07:02;16.00;94.40
47600;DHT22;33323;52.124;6.018;2022-07-29T01:09:31;16.00;94.20
47600;DHT22;33323;52.124;6.018;2022-07-29T01:12:18;16.00;94.10
47600;DHT22;33323;52.124;6.018;2022-07-29T01:14:49;15.90;94.20
47600;DHT22;33323;52.124;6.018;2022-07-29T01:17:46;16.00;94.70
47600;DHT22;33323;52.124;6.018;2022-07-29T01:20:27;15.80;94.80
47600;DHT22;33323;52.124;6.018;2022-07-29T01:26:47;15.90;94.60
47600;DHT22;33323;52.124;6.018;2022-07-29T01:32:29;15.90;94.60
47600;DHT22;33323;52.124;6.018;2022-07-29T01:35:23;15.90;94.80
47600;DHT22;33323;52.124;6.018;2022-07-29T01:38:05;15.70;95.20
47600;DHT22;33323;52.124;6.018;2022-07-29T01:40:40;15.70;94.90
47600;DHT22;33323;52.124;6.018;2022-07-29T01:43:14;15.70;95.80
47600;DHT22;33323;52.124;6.018;2022-07-29T01:45:53;15.70;95.70
47600;DHT22;33323;52.124;6.018;2022-07-29T01:48:31;15.70;95.40
47600;DHT22;33323;52.124;6.018;2022-07-29T01:54:06;15.60;95.50
47600;DHT22;33323;52.124;6.018;2022-07-29T01:56:43;15.70;95.60
47600;DHT22;33323;52.124;6.018;2022-07-29T01:59:18;15.70;95.30
47600;DHT22;33323;52.124;6.018;2022-07-29T02:01:47;15.70;95.40
47600;DHT22;33323;52.124;6.018;2022-07-29T02:04:20;15.70;95.20
47600;DHT22;33323;52.124;6.018;2022-07-29T02:07:00;15.70;95.40
47600;DHT22;33323;52.124;6.018;2022-07-29T02:09:30;15.70;95.30
47600;DHT22;33323;52.124;6.018;2022-07-29T02:11:59;15.60;95.60
47600;DHT22;33323;52.124;6.018;2022-07-29T02:14:31;15.70;95.50
47600;DHT22;33323;52.124;6.018;2022-07-29T02:17:01;15.50;95.70
47600;DHT22;33323;52.124;6.018;2022-07-29T02:19:31;15.50;95.70
47600;DHT22;33323;52.124;6.018;2022-07-29T02:22:00;15.50;96.00
47600;DHT22;33323;52.124;6.018;2022-07-29T02:24:28;15.50;95.70
47600;DHT22;33323;52.124;6.018;2022-07-29T02:26:58;15.50;96.00
47600;DHT22;33323;52.124;6.018;2022-07-29T02:29:27;15.60;95.60
47600;DHT22;33323;52.124;6.018;2022-07-29T02:31:57;15.60;95.60
47600;DHT22;33323;52.124;6.018;2022-07-29T02:34:25;15.60;95.50
47600;DHT22;33323;52.124;6.018;2022-07-29T02:36:54;15.80;94.90
47600;DHT22;33323;52.124;6.018;2022-07-29T02:39:23;15.80;94.90
47600;DHT22;33323;52.124;6.018;2022-07-29T02:41:55;15.60;95.10
47600;DHT22;33323;52.124;6.018;2022-07-29T02:44:25;15.60;95.30
47600;DHT22;33323;52.124;6.018;2022-07-29T02:47:27;15.60;95.10
47600;DHT22;33323;52.124;6.018;2022-07-29T02:50:21;15.50;95.20
47600;DHT22;33323;52.124;6.018;2022-07-29T02:53:04;15.60;95.30
47600;DHT22;33323;52.124;6.018;2022-07-29T02:55:40;15.60;95.40
47600;DHT22;33323;52.124;6.018;2022-07-29T02:58:19;15.60;95.20
47600;DHT22;33323;52.124;6.018;2022-07-29T03:00:50;15.70;95.60
47600;DHT22;33323;52.124;6.018;2022-07-29T03:03:18;15.70;95.20
47600;DHT22;33323;52.124;6.018;2022-07-29T03:05:46;15.70;95.30
47600;DHT22;33323;52.124;6.018;2022-07-29T03:08:15;15.70;95.40
47600;DHT22;33323;52.124;6.018;2022-07-29T03:10:46;15.60;95.50
47600;DHT22;33323;52.124;6.018;2022-07-29T03:13:14;15.60;95.80
47600;DHT22;33323;52.124;6.018;2022-07-29T03:15:43;15.60;96.00
47600;DHT22;33323;52.124;6.018;2022-07-29T03:18:11;15.50;96.90
47600;DHT22;33323;52.124;6.018;2022-07-29T03:20:42;15.40;97.70
47600;DHT22;33323;52.124;6.018;2022-07-29T03:23:09;15.40;97.60
47600;DHT22;33323;52.124;6.018;2022-07-29T03:25:36;15.60;96.80
47600;DHT22;33323;52.124;6.018;2022-07-29T03:28:04;15.70;96.70
47600;DHT22;33323;52.124;6.018;2022-07-29T03:30:31;15.80;95.80
47600;DHT22;33323;52.124;6.018;2022-07-29T03:32:59;15.80;96.70
47600;DHT22;33323;52.124;6.018;2022-07-29T03:35:28;15.80;97.60
47600;DHT22;33323;52.124;6.018;2022-07-29T03:37:56;15.60;97.40
47600;DHT22;33323;52.124;6.018;2022-07-29T03:40:30;15.60;97.00
47600;DHT22;33323;52.124;6.018;2022-07-29T03:43:00;15.60;97.00
47600;DHT22;33323;52.124;6.018;2022-07-29T03:45:30;15.50;98.10
47600;DHT22;33323;52.124;6.018;2022-07-29T03:48:02;15.40;97.70
47600;DHT22;33323;52.124;6.018;2022-07-29T03:50:33;15.30;98.00
47600;DHT22;33323;52.124;6.018;2022-07-29T03:53:01;15.30;99.00
47600;DHT22;33323;52.124;6.018;2022-07-29T03:55:32;15.30;99.20
47600;DHT22;33323;52.124;6.018;2022-07-29T03:58:08;15.30;99.90
47600;DHT22;33323;52.124;6.018;2022-07-29T04:00:36;15.10;99.90
47600;DHT22;33323;52.124;6.018;2022-07-29T04:03:05;15.00;99.90
47600;DHT22;33323;52.124;6.018;2022-07-29T04:05:37;14.80;99.90
47600;DHT22;33323;52.124;6.018;2022-07-29T04:08:04;14.80;99.90
47600;DHT22;33323;52.124;6.018;2022-07-29T04:10:32;14.60;99.90
47600;DHT22;33323;52.124;6.018;2022-07-29T04:13:01;14.60;99.90
47600;DHT22;33323;52.124;6.018;2022-07-29T04:15:28;14.70;99.90
47600;DHT22;33323;52.124;6.018;2022-07-29T04:17:58;14.70;99.90
47600;DHT22;33323;52.124;6.018;2022-07-29T04:20:26;14.70;99.90
47600;DHT22;33323;52.124;6.018;2022-07-29T04:22:53;14.60;99.90
47600;DHT22;33323;52.124;6.018;2022-07-29T04:25:20;14.50;99.90
47600;DHT22;33323;52.124;6.018;2022-07-29T04:27:47;14.60;99.90
47600;DHT22;33323;52.124;6.018;2022-07-29T04:30:31;14.60;99.90
47600;DHT22;33323;52.124;6.018;2022-07-29T04:33:00;14.60;99.90
47600;DHT22;33323;52.124;6.018;2022-07-29T04:35:28;14.40;99.90
47600;DHT22;33323;52.124;6.018;2022-07-29T04:38:05;14.40;99.90
47600;DHT22;33323;52.124;6.018;2022-07-29T04:40:40;14.40;99.90
47600;DHT22;33323;52.124;6.018;2022-07-29T04:43:07;14.40;99.90
47600;DHT22;33323;52.124;6.018;2022-07-29T04:45:37;14.40;99.90
47600;DHT22;33323;52.124;6.018;2022-07-29T04:48:04;14.50;99.90
47600;DHT22;33323;52.124;6.018;2022-07-29T04:50:32;14.50;99.90
47600;DHT22;33323;52.124;6.018;2022-07-29T04:52:59;14.40;99.90
47600;DHT22;33323;52.124;6.018;2022-07-29T04:55:26;14.40;99.90
47600;DHT22;33323;52.124;6.018;2022-07-29T04:57:53;14.50;99.90
47600;DHT22;33323;52.124;6.018;2022-07-29T05:00:20;14.40;99.90
47600;DHT22;33323;52.124;6.018;2022-07-29T05:02:56;14.40;99.90
47600;DHT22;33323;52.124;6.018;2022-07-29T05:05:23;14.50;99.90
47600;DHT22;33323;52.124;6.018;2022-07-29T05:07:50;14.50;99.90
47600;DHT22;33323;52.124;6.018;2022-07-29T05:10:17;14.50;99.90
47600;DHT22;33323;52.124;6.018;2022-07-29T05:12:44;14.50;99.90
47600;DHT22;33323;52.124;6.018;2022-07-29T05:15:11;14.50;99.90
47600;DHT22;33323;52.124;6.018;2022-07-29T05:17:39;14.50;99.90
47600;DHT22;33323;52.124;6.018;2022-07-29T05:20:06;14.40;99.90
47600;DHT22;33323;52.124;6.018;2022-07-29T05:22:33;14.50;99.90
47600;DHT22;33323;52.124;6.018;2022-07-29T05:25:01;14.40;99.90
47600;DHT22;33323;52.124;6.018;2022-07-29T05:27:35;14.50;99.90
47600;DHT22;33323;52.124;6.018;2022-07-29T05:30:03;14.50;99.90
47600;DHT22;33323;52.124;6.018;2022-07-29T05:32:30;14.60;99.90
47600;DHT22;33323;52.124;6.018;2022-07-29T05:34:58;14.40;99.90
47600;DHT22;33323;52.124;6.018;2022-07-29T05:37:25;14.50;99.90
47600;DHT22;33323;52.124;6.018;2022-07-29T05:39:52;14.40;99.90
47600;DHT22;33323;52.124;6.018;2022-07-29T05:42:25;14.30;99.90
47600;DHT22;33323;52.124;6.018;2022-07-29T05:44:53;14.30;99.90
47600;DHT22;33323;52.124;6.018;2022-07-29T05:47:20;14.40;99.90
47600;DHT22;33323;52.124;6.018;2022-07-29T05:49:48;14.60;99.90
47600;DHT22;33323;52.124;6.018;2022-07-29T05:52:15;14.60;99.90
47600;DHT22;33323;52.124;6.018;2022-07-29T05:54:42;14.50;99.90
47600;DHT22;33323;52.124;6.018;2022-07-29T05:57:20;14.30;99.90
47600;DHT22;33323;52.124;6.018;2022-07-29T05:59:50;14.30;99.90
47600;DHT22;33323;52.124;6.018;2022-07-29T06:02:17;14.50;99.90
47600;DHT22;33323;52.124;6.018;2022-07-29T06:04:44;14.60;99.90
47600;DHT22;33323;52.124;6.018;2022-07-29T06:07:12;14.80;99.90
47600;DHT22;33323;52.124;6.018;2022-07-29T06:09:39;14.90;99.90
47600;DHT22;33323;52.124;6.018;2022-07-29T06:12:06;14.90;99.90
47600;DHT22;33323;52.124;6.018;2022-07-29T06:14:33;15.10;99.90
47600;DHT22;33323;52.124;6.018;2022-07-29T06:17:00;15.10;99.90
47600;DHT22;33323;52.124;6.018;2022-07-29T06:19:27;15.20;99.90
47600;DHT22;33323;52.124;6.018;2022-07-29T06:21:54;15.10;99.90
47600;DHT22;33323;52.124;6.018;2022-07-29T06:24:21;15.20;99.90
47600;DHT22;33323;52.124;6.018;2022-07-29T06:26:48;15.20;99.90
47600;DHT22;33323;52.124;6.018;2022-07-29T06:29:15;15.20;99.90
47600;DHT22;33323;52.124;6.018;2022-07-29T06:31:42;15.20;99.90
47600;DHT22;33323;52.124;6.018;2022-07-29T06:34:09;15.20;99.90
47600;DHT22;33323;52.124;6.018;2022-07-29T06:36:37;15.30;99.90
47600;DHT22;33323;52.124;6.018;2022-07-29T06:39:07;15.30;99.90
47600;DHT22;33323;52.124;6.018;2022-07-29T06:41:34;15.40;99.90
47600;DHT22;33323;52.124;6.018;2022-07-29T06:44:08;15.60;99.90
47600;DHT22;33323;52.124;6.018;2022-07-29T06:46:35;15.70;99.90
47600;DHT22;33323;52.124;6.018;2022-07-29T06:49:03;15.80;99.90
47600;DHT22;33323;52.124;6.018;2022-07-29T06:51:31;15.90;99.90
47600;DHT22;33323;52.124;6.018;2022-07-29T06:53:58;15.90;99.90
47600;DHT22;33323;52.124;6.018;2022-07-29T06:56:33;16.00;99.90
47600;DHT22;33323;52.124;6.018;2022-07-29T06:59:06;16.10;99.90
47600;DHT22;33323;52.124;6.018;2022-07-29T07:01:42;16.00;99.40
47600;DHT22;33323;52.124;6.018;2022-07-29T07:04:10;16.00;98.70
47600;DHT22;33323;52.124;6.018;2022-07-29T07:06:38;16.00;98.40
47600;DHT22;33323;52.124;6.018;2022-07-29T07:09:05;16.00;99.70
47600;DHT22;33323;52.124;6.018;2022-07-29T07:11:33;16.10;98.30
47600;DHT22;33323;52.124;6.018;2022-07-29T07:14:00;16.20;99.10
47600;DHT22;33323;52.124;6.018;2022-07-29T07:16:30;16.40;99.90
47600;DHT22;33323;52.124;6.018;2022-07-29T07:18:58;16.40;98.10
47600;DHT22;33323;52.124;6.018;2022-07-29T07:21:25;16.50;98.40
47600;DHT22;33323;52.124;6.018;2022-07-29T07:23:55;16.80;97.70
47600;DHT22;33323;52.124;6.018;2022-07-29T07:26:22;16.90;97.00
47600;DHT22;33323;52.124;6.018;2022-07-29T07:28:50;16.90;96.20
47600;DHT22;33323;52.124;6.018;2022-07-29T07:31:17;16.90;95.20
47600;DHT22;33323;52.124;6.018;2022-07-29T07:33:44;16.90;96.50
47600;DHT22;33323;52.124;6.018;2022-07-29T07:36:11;17.00;96.50
47600;DHT22;33323;52.124;6.018;2022-07-29T07:38:38;17.00;96.20
47600;DHT22;33323;52.124;6.018;2022-07-29T07:41:05;17.00;96.00
47600;DHT22;33323;52.124;6.018;2022-07-29T07:43:32;17.00;95.70
47600;DHT22;33323;52.124;6.018;2022-07-29T07:45:59;16.90;97.30
47600;DHT22;33323;52.124;6.018;2022-07-29T07:48:27;17.00;96.70
47600;DHT22;33323;52.124;6.018;2022-07-29T07:50:54;17.10;97.60
47600;DHT22;33323;52.124;6.018;2022-07-29T07:53:21;17.20;97.00
47600;DHT22;33323;52.124;6.018;2022-07-29T07:55:48;17.20;97.70
47600;DHT22;33323;52.124;6.018;2022-07-29T07:58:35;17.30;97.10
47600;DHT22;33323;52.124;6.018;2022-07-29T08:01:02;17.10;97.70
47600;DHT22;33323;52.124;6.018;2022-07-29T08:03:30;17.10;97.30
47600;DHT22;33323;52.124;6.018;2022-07-29T08:05:57;16.90;97.50
47600;DHT22;33323;52.124;6.018;2022-07-29T08:08:24;16.90;97.80
47600;DHT22;33323;52.124;6.018;2022-07-29T08:10:51;16.80;98.50
47600;DHT22;33323;52.124;6.018;2022-07-29T08:13:27;16.70;98.80
47600;DHT22;33323;52.124;6.018;2022-07-29T08:15:56;16.80;97.40
47600;DHT22;33323;52.124;6.018;2022-07-29T08:18:25;16.80;97.10
47600;DHT22;33323;52.124;6.018;2022-07-29T08:20:56;16.90;97.10
47600;DHT22;33323;52.124;6.018;2022-07-29T08:23:23;16.80;96.90
47600;DHT22;33323;52.124;6.018;2022-07-29T08:25:51;16.90;96.90
47600;DHT22;33323;52.124;6.018;2022-07-29T08:28:20;17.00;97.30
47600;DHT22;33323;52.124;6.018;2022-07-29T08:30:51;17.10;97.00
47600;DHT22;33323;52.124;6.018;2022-07-29T08:33:18;17.20;97.00
47600;DHT22;33323;52.124;6.018;2022-07-29T08:35:45;17.10;96.40
47600;DHT22;33323;52.124;6.018;2022-07-29T08:38:12;17.40;98.60
47600;DHT22;33323;52.124;6.018;2022-07-29T08:40:39;17.40;96.70
47600;DHT22;33323;52.124;6.018;2022-07-29T08:43:09;17.60;96.50
47600;DHT22;33323;52.124;6.018;2022-07-29T08:45:42;17.60;95.50
47600;DHT22;33323;52.124;6.018;2022-07-29T08:48:19;17.70;95.80
47600;DHT22;33323;52.124;6.018;2022-07-29T08:50:52;17.80;96.20
47600;DHT22;33323;52.124;6.018;2022-07-29T08:53:24;17.90;95.50
47600;DHT22;33323;52.124;6.018;2022-07-29T08:55:53;18.00;94.60
47600;DHT22;33323;52.124;6.018;2022-07-29T08:58:21;18.10;95.60
47600;DHT22;33323;52.124;6.018;2022-07-29T09:00:53;18.10;95.60
47600;DHT22;33323;52.124;6.018;2022-07-29T09:03:25;18.20;95.40
47600;DHT22;33323;52.124;6.018;2022-07-29T09:05:54;18.20;94.90
47600;DHT22;33323;52.124;6.018;2022-07-29T09:08:21;18.10;93.70
47600;DHT22;33323;52.124;6.018;2022-07-29T09:10:49;18.10;96.10
47600;DHT22;33323;52.124;6.018;2022-07-29T09:13:17;18.20;93.80
47600;DHT22;33323;52.124;6.018;2022-07-29T09:15:45;18.30;94.40
47600;DHT22;33323;52.124;6.018;2022-07-29T09:18:12;18.10;94.50
47600;DHT22;33323;52.124;6.018;2022-07-29T09:20:55;18.20;94.50
47600;DHT22;33323;52.124;6.018;2022-07-29T09:23:41;18.10;95.20
47600;DHT22;33323;52.124;6.018;2022-07-29T09:26:10;18.10;95.80
47600;DHT22;33323;52.124;6.018;2022-07-29T09:28:41;18.20;94.40
47600;DHT22;33323;52.124;6.018;2022-07-29T09:31:08;18.30;94.80
47600;DHT22;33323;52.124;6.018;2022-07-29T09:33:35;18.40;94.50
47600;DHT22;33323;52.124;6.018;2022-07-29T09:36:08;18.50;94.60
47600;DHT22;33323;52.124;6.018;2022-07-29T09:38:36;18.60;94.40
47600;DHT22;33323;52.124;6.018;2022-07-29T09:41:04;18.60;94.40
47600;DHT22;33323;52.124;6.018;2022-07-29T09:43:33;18.50;93.70
47600;DHT22;33323;52.124;6.018;2022-07-29T09:46:11;18.50;93.70
47600;DHT22;33323;52.124;6.018;2022-07-29T09:48:39;18.50;94.20
47600;DHT22;33323;52.124;6.018;2022-07-29T09:51:19;18.60;93.70
47600;DHT22;33323;52.124;6.018;2022-07-29T09:54:25;18.70;94.10
47600;DHT22;33323;52.124;6.018;2022-07-29T09:56:54;18.80;94.90
47600;DHT22;33323;52.124;6.018;2022-07-29T09:59:22;19.00;93.90
47600;DHT22;33323;52.124;6.018;2022-07-29T10:01:52;18.80;93.40
47600;DHT22;33323;52.124;6.018;2022-07-29T10:04:20;19.00;94.60
47600;DHT22;33323;52.124;6.018;2022-07-29T10:06:57;19.00;92.20
47600;DHT22;33323;52.124;6.018;2022-07-29T10:09:31;18.90;93.10
47600;DHT22;33323;52.124;6.018;2022-07-29T10:12:10;18.90;93.60
47600;DHT22;33323;52.124;6.018;2022-07-29T10:14:42;19.00;93.20
47600;DHT22;33323;52.124;6.018;2022-07-29T10:17:10;19.10;93.80
47600;DHT22;33323;52.124;6.018;2022-07-29T10:19:38;19.10;93.40
47600;DHT22;33323;52.124;6.018;2022-07-29T10:22:07;19.00;92.70
47600;DHT22;33323;52.124;6.018;2022-07-29T10:24:36;18.90;93.80
47600;DHT22;33323;52.124;6.018;2022-07-29T10:27:06;19.00;93.90
47600;DHT22;33323;52.124;6.018;2022-07-29T10:29:35;19.00;93.70
47600;DHT22;33323;52.124;6.018;2022-07-29T10:38:31;19.20;93.50
47600;DHT22;33323;52.124;6.018;2022-07-29T10:43:59;19.70;93.30
47600;DHT22;33323;52.124;6.018;2022-07-29T10:46:37;20.10;91.50
47600;DHT22;33323;52.124;6.018;2022-07-29T10:49:27;20.30;90.40
47600;DHT22;33323;52.124;6.018;2022-07-29T10:52:02;20.20;87.70
47600;DHT22;33323;52.124;6.018;2022-07-29T10:54:36;20.00;88.90
47600;DHT22;33323;52.124;6.018;2022-07-29T10:57:22;20.40;90.10
47600;DHT22;33323;52.124;6.018;2022-07-29T11:02:43;21.50;85.80
47600;DHT22;33323;52.124;6.018;2022-07-29T11:05:17;21.70;83.10
47600;DHT22;33323;52.124;6.018;2022-07-29T11:10:47;22.30;79.60
47600;DHT22;33323;52.124;6.018;2022-07-29T11:16:12;22.70;78.60
47600;DHT22;33323;52.124;6.018;2022-07-29T11:21:45;22.70;73.60
47600;DHT22;33323;52.124;6.018;2022-07-29T11:24:28;22.60;71.90
47600;DHT22;33323;52.124;6.018;2022-07-29T11:27:13;22.60;78.30
47600;DHT22;33323;52.124;6.018;2022-07-29T11:29:57;22.80;79.50
47600;DHT22;33323;52.124;6.018;2022-07-29T11:32:41;22.90;76.00
47600;DHT22;33323;52.124;6.018;2022-07-29T11:35:20;22.60;75.30
47600;DHT22;33323;52.124;6.018;2022-07-29T11:38:25;22.70;73.90
47600;DHT22;33323;52.124;6.018;2022-07-29T11:41:23;23.20;76.70
47600;DHT22;33323;52.124;6.018;2022-07-29T11:43:54;23.30;75.20
47600;DHT22;33323;52.124;6.018;2022-07-29T11:46:45;23.70;69.40
47600;DHT22;33323;52.124;6.018;2022-07-29T11:49:19;24.10;66.90
47600;DHT22;33323;52.124;6.018;2022-07-29T11:51:59;23.80;65.50
47600;DHT22;33323;52.124;6.018;2022-07-29T11:54:32;23.50;66.40
47600;DHT22;33323;52.124;6.018;2022-07-29T11:57:21;23.80;68.00
47600;DHT22;33323;52.124;6.018;2022-07-29T11:59:48;24.00;63.10
47600;DHT22;33323;52.124;6.018;2022-07-29T12:02:16;23.70;65.90
47600;DHT22;33323;52.124;6.018;2022-07-29T12:05:03;23.60;64.70
47600;DHT22;33323;52.124;6.018;2022-07-29T12:07:38;23.70;66.50
47600;DHT22;33323;52.124;6.018;2022-07-29T12:10:13;23.70;65.40
47600;DHT22;33323;52.124;6.018;2022-07-29T12:12:56;23.90;62.50
47600;DHT22;33323;52.124;6.018;2022-07-29T12:15:24;24.10;64.60
47600;DHT22;33323;52.124;6.018;2022-07-29T12:18:18;24.10;60.70
47600;DHT22;33323;52.124;6.018;2022-07-29T12:20:57;24.30;59.20
47600;DHT22;33323;52.124;6.018;2022-07-29T12:23:30;24.20;55.00
47600;DHT22;33323;52.124;6.018;2022-07-29T12:26:04;24.00;59.90
47600;DHT22;33323;52.124;6.018;2022-07-29T12:28:39;24.30;62.40
47600;DHT22;33323;52.124;6.018;2022-07-29T12:31:13;24.50;59.30
47600;DHT22;33323;52.124;6.018;2022-07-29T12:34:01;24.80;57.40
47600;DHT22;33323;52.124;6.018;2022-07-29T12:36:28;24.90;57.50
47600;DHT22;33323;52.124;6.018;2022-07-29T12:38:55;25.00;51.90
47600;DHT22;33323;52.124;6.018;2022-07-29T12:41:22;25.10;51.00
47600;DHT22;33323;52.124;6.018;2022-07-29T12:43:53;25.30;54.40
47600;DHT22;33323;52.124;6.018;2022-07-29T12:46:21;25.10;51.20
47600;DHT22;33323;52.124;6.018;2022-07-29T12:48:51;24.80;55.60
47600;DHT22;33323;52.124;6.018;2022-07-29T12:51:35;24.50;53.20
47600;DHT22;33323;52.124;6.018;2022-07-29T12:54:13;24.50;54.60
47600;DHT22;33323;52.124;6.018;2022-07-29T12:56:42;24.50;53.30
47600;DHT22;33323;52.124;6.018;2022-07-29T13:01:43;25.10;54.30
47600;DHT22;33323;52.124;6.018;2022-07-29T13:04:10;25.30;52.80
47600;DHT22;33323;52.124;6.018;2022-07-29T13:06:43;25.40;51.80
47600;DHT22;33323;52.124;6.018;2022-07-29T13:09:19;25.30;51.90
47600;DHT22;33323;52.124;6.018;2022-07-29T13:11:51;25.60;53.50
47600;DHT22;33323;52.124;6.018;2022-07-29T13:14:33;26.00;51.20
47600;DHT22;33323;52.124;6.018;2022-07-29T13:17:22;26.20;49.10
47600;DHT22;33323;52.124;6.018;2022-07-29T13:19:51;26.10;50.50
47600;DHT22;33323;52.124;6.018;2022-07-29T13:22:24;25.90;46.70
47600;DHT22;33323;52.124;6.018;2022-07-29T13:24:59;25.80;51.30
47600;DHT22;33323;52.124;6.018;2022-07-29T13:27:32;25.80;47.50
47600;DHT22;33323;52.124;6.018;2022-07-29T13:30:02;25.80;46.40
47600;DHT22;33323;52.124;6.018;2022-07-29T13:32:33;25.80;44.00
47600;DHT22;33323;52.124;6.018;2022-07-29T13:35:05;26.20;47.30
47600;DHT22;33323;52.124;6.018;2022-07-29T13:37:35;25.90;45.50
47600;DHT22;33323;52.124;6.018;2022-07-29T13:40:06;26.10;50.40
47600;DHT22;33323;52.124;6.018;2022-07-29T13:42:34;26.20;46.00
47600;DHT22;33323;52.124;6.018;2022-07-29T13:45:03;26.00;45.90
47600;DHT22;33323;52.124;6.018;2022-07-29T13:47:31;25.70;46.60
47600;DHT22;33323;52.124;6.018;2022-07-29T13:50:02;25.80;50.00
47600;DHT22;33323;52.124;6.018;2022-07-29T13:52:33;26.20;52.30
47600;DHT22;33323;52.124;6.018;2022-07-29T13:55:01;26.40;47.10
47600;DHT22;33323;52.124;6.018;2022-07-29T13:57:28;26.30;48.20
47600;DHT22;33323;52.124;6.018;2022-07-29T13:59:56;26.10;48.90
47600;DHT22;33323;52.124;6.018;2022-07-29T14:02:23;26.30;49.60
47600;DHT22;33323;52.124;6.018;2022-07-29T14:04:52;26.00;50.40
47600;DHT22;33323;52.124;6.018;2022-07-29T14:07:21;25.70;46.00
47600;DHT22;33323;52.124;6.018;2022-07-29T14:09:48;25.80;51.40
47600;DHT22;33323;52.124;6.018;2022-07-29T14:12:15;25.80;51.10
47600;DHT22;33323;52.124;6.018;2022-07-29T14:14:43;25.60;50.40
47600;DHT22;33323;52.124;6.018;2022-07-29T14:17:13;25.50;52.60
47600;DHT22;33323;52.124;6.018;2022-07-29T14:19:40;25.60;46.80
47600;DHT22;33323;52.124;6.018;2022-07-29T14:22:08;25.60;47.10
47600;DHT22;33323;52.124;6.018;2022-07-29T14:24:37;25.70;45.90
47600;DHT22;33323;52.124;6.018;2022-07-29T14:27:05;25.60;46.90
47600;DHT22;33323;52.124;6.018;2022-07-29T14:29:33;25.60;47.00
47600;DHT22;33323;52.124;6.018;2022-07-29T14:32:05;25.80;47.50
47600;DHT22;33323;52.124;6.018;2022-07-29T14:34:34;25.90;45.60
47600;DHT22;33323;52.124;6.018;2022-07-29T14:37:03;25.90;44.50
47600;DHT22;33323;52.124;6.018;2022-07-29T14:39:33;26.00;45.00
47600;DHT22;33323;52.124;6.018;2022-07-29T14:42:08;26.10;45.90
47600;DHT22;33323;52.124;6.018;2022-07-29T14:44:38;26.10;46.90
47600;DHT22;33323;52.124;6.018;2022-07-29T14:47:07;26.10;44.40
47600;DHT22;33323;52.124;6.018;2022-07-29T14:49:37;26.10;44.90
47600;DHT22;33323;52.124;6.018;2022-07-29T14:52:04;26.20;43.50
47600;DHT22;33323;52.124;6.018;2022-07-29T14:54:31;26.10;45.70
47600;DHT22;33323;52.124;6.018;2022-07-29T14:57:01;26.20;42.70
47600;DHT22;33323;52.124;6.018;2022-07-29T14:59:31;26.30;44.50
47600;DHT22;33323;52.124;6.018;2022-07-29T15:01:59;26.30;45.30
47600;DHT22;33323;52.124;6.018;2022-07-29T15:04:27;26.40;43.10
47600;DHT22;33323;52.124;6.018;2022-07-29T15:06:54;26.60;42.60
47600;DHT22;33323;52.124;6.018;2022-07-29T15:09:24;26.50;42.50
47600;DHT22;33323;52.124;6.018;2022-07-29T15:11:53;26.30;41.00
47600;DHT22;33323;52.124;6.018;2022-07-29T15:14:21;25.90;44.60
47600;DHT22;33323;52.124;6.018;2022-07-29T15:16:47;26.00;47.20
47600;DHT22;33323;52.124;6.018;2022-07-29T15:19:18;26.00;44.20
47600;DHT22;33323;52.124;6.018;2022-07-29T15:21:45;26.10;42.20
47600;DHT22;33323;52.124;6.018;2022-07-29T15:24:25;26.00;43.80
47600;DHT22;33323;52.124;6.018;2022-07-29T15:26:53;26.00;44.30
47600;DHT22;33323;52.124;6.018;2022-07-29T15:29:20;26.00;41.90
47600;DHT22;33323;52.124;6.018;2022-07-29T15:31:48;26.00;41.20
47600;DHT22;33323;52.124;6.018;2022-07-29T15:34:18;26.00;41.70
47600;DHT22;33323;52.124;6.018;2022-07-29T15:36:47;26.00;42.10
47600;DHT22;33323;52.124;6.018;2022-07-29T15:39:19;26.20;41.00
47600;DHT22;33323;52.124;6.018;2022-07-29T15:41:47;26.30;43.40
47600;DHT22;33323;52.124;6.018;2022-07-29T15:44:13;26.30;40.90
47600;DHT22;33323;52.124;6.018;2022-07-29T15:46:40;26.10;41.60
47600;DHT22;33323;52.124;6.018;2022-07-29T15:49:27;26.20;44.30
47600;DHT22;33323;52.124;6.018;2022-07-29T15:52:18;26.30;42.50
47600;DHT22;33323;52.124;6.018;2022-07-29T15:54:53;26.50;41.70
47600;DHT22;33323;52.124;6.018;2022-07-29T15:57:21;26.40;43.20
47600;DHT22;33323;52.124;6.018;2022-07-29T15:59:49;26.30;41.50
47600;DHT22;33323;52.124;6.018;2022-07-29T16:02:16;26.20;42.90
47600;DHT22;33323;52.124;6.018;2022-07-29T16:04:43;26.30;42.90
47600;DHT22;33323;52.124;6.018;2022-07-29T16:07:10;26.20;43.80
47600;DHT22;33323;52.124;6.018;2022-07-29T16:09:40;25.90;43.70
47600;DHT22;33323;52.124;6.018;2022-07-29T16:12:08;25.70;43.10
47600;DHT22;33323;52.124;6.018;2022-07-29T16:14:42;25.60;43.00
47600;DHT22;33323;52.124;6.018;2022-07-29T16:17:10;25.50;44.60
47600;DHT22;33323;52.124;6.018;2022-07-29T16:19:41;25.50;43.50
47600;DHT22;33323;52.124;6.018;2022-07-29T16:22:09;25.50;46.70
47600;DHT22;33323;52.124;6.018;2022-07-29T16:24:37;25.40;43.70
47600;DHT22;33323;52.124;6.018;2022-07-29T16:27:04;25.30;45.70